< < Back
Terminal Aerodrome Forecast


Current Version              Previous Versions:   1  2  3  4  5  6  7  8  9  

Terminal Aerodrome Forecast

884
FTUS44 KMRX 230006 RRA
TAFCHA
TAF
KCHA 230006Z 2300/2324 29003KT P6SM FEW050 SCT250
     FM230300 00000KT P6SM BKN250
     FM231500 32006KT P6SM SCT050 BKN200=



Latest METAR

373
SAUS80 KWBC 231500 RRB
MTRCHA
METAR KCHA 231453Z VRB03KT 10SM SCT034 BKN250 31/23 A3004 RMK AO2 SLP162
T03060228 53001 $


USA.gov is the U.S. government's official web portal to all federal, state and local government web resources and services.